Time,TemperatureF,DewpointF,PressureIn,WindDirection,WindDirectionDegrees,WindSpeedMPH,WindSpeedGustMPH,Humidity,HourlyPrecipIn,Conditions,Clouds,dailyrainin,SoftwareType,DateUTC
2013-01-20 00:02:00,24.0,0.0,-100.00,WNW,294,9.0,11.0,35,0.00,,,-99.99,,2013-01-20 07:02:00,
2013-01-20 00:12:00,25.0,0.0,-100.00,WNW,298,9.0,11.0,35,0.00,,,-99.99,,2013-01-20 07:12:00,
2013-01-20 00:22:00,32.0,0.0,-100.00,WNW,289,12.0,15.0,25,0.00,,,-99.99,,2013-01-20 07:22:00,
2013-01-20 00:32:00,31.0,0.0,-100.00,NW,304,9.0,12.0,26,0.00,,,-99.99,,2013-01-20 07:32:00,
2013-01-20 00:42:00,33.0,0.0,-100.00,WNW,289,16.0,23.0,24,0.00,,,-99.99,,2013-01-20 07:42:00,
2013-01-20 00:52:00,34.0,1.0,-100.00,WNW,285,20.0,24.0,24,0.00,,,-99.99,,2013-01-20 07:52:00,
2013-01-20 01:02:00,33.0,1.0,-100.00,West,277,14.0,18.0,25,0.00,,,-99.99,,2013-01-20 08:02:00,
2013-01-20 01:12:00,32.0,1.0,-100.00,West,263,14.0,22.0,26,0.00,,,-99.99,,2013-01-20 08:12:00,
2013-01-20 01:22:00,33.0,2.0,-100.00,West,272,14.0,18.0,27,0.00,,,-99.99,,2013-01-20 08:22:00,
2013-01-20 01:32:00,33.0,2.0,-100.00,West,272,17.0,22.0,27,0.00,,,-99.99,,2013-01-20 08:32:00,
2013-01-20 01:42:00,31.0,2.0,-100.00,West,261,8.0,10.0,28,0.00,,,-99.99,,2013-01-20 08:42:00,
2013-01-20 01:52:00,31.0,2.0,-100.00,WSW,248,9.0,15.0,28,0.00,,,-99.99,,2013-01-20 08:52:00,
2013-01-20 02:02:00,31.0,2.0,-100.00,WSW,254,9.0,12.0,29,0.00,,,-99.99,,2013-01-20 09:02:00,
2013-01-20 02:12:00,31.0,3.0,-100.00,West,260,12.0,17.0,30,0.00,,,-99.99,,2013-01-20 09:12:00,
2013-01-20 02:22:00,30.0,3.0,-100.00,WSW,257,11.0,14.0,32,0.00,,,-99.99,,2013-01-20 09:22:00,
2013-01-20 02:33:00,29.0,4.0,-100.00,WSW,246,10.0,14.0,33,0.00,,,-99.99,,2013-01-20 09:33:00,
2013-01-20 02:42:00,29.0,3.0,-100.00,WSW,248,10.0,13.0,33,0.00,,,-99.99,,2013-01-20 09:42:00,
2013-01-20 02:52:00,30.0,3.0,-100.00,WSW,246,13.0,18.0,31,0.00,,,-99.99,,2013-01-20 09:52:00,
2013-01-20 03:02:00,30.0,4.0,-100.00,WSW,237,11.0,15.0,32,0.00,,,-99.99,,2013-01-20 10:02:00,
2013-01-20 03:12:00,31.0,4.0,-100.00,SW,236,9.0,12.0,31,0.00,,,-99.99,,2013-01-20 10:12:00,
2013-01-20 03:22:00,29.0,4.0,-100.00,WSW,251,10.0,13.0,33,0.00,,,-99.99,,2013-01-20 10:22:00,
2013-01-20 03:32:00,29.0,4.0,-100.00,WSW,257,8.0,12.0,33,0.00,,,-99.99,,2013-01-20 10:32:00,
2013-01-20 03:42:00,29.0,4.0,-100.00,WSW,250,6.0,9.0,33,0.00,,,-99.99,,2013-01-20 10:42:00,
2013-01-20 03:52:00,28.0,3.0,-100.00,WSW,248,5.0,9.0,34,0.00,,,-99.99,,2013-01-20 10:52:00,
2013-01-20 14:13:00,32.0,32.0,-100.00,North,0,0.0,0.0,0,0.00,,,-99.99,,2013-01-20 21:13:00,
2013-01-20 14:23:00,39.0,4.0,-100.00,NW,306,19.0,24.0,22,0.00,,,-99.99,,2013-01-20 21:23:00,
2013-01-20 14:33:00,40.0,2.0,-100.00,NW,306,21.0,27.0,20,0.00,,,-99.99,,2013-01-20 21:33:00,
2013-01-20 14:43:00,40.0,4.0,-100.00,WNW,295,20.0,24.0,22,0.00,,,-99.99,,2013-01-20 21:43:00,
2013-01-20 14:52:00,40.0,4.0,-100.00,WNW,285,20.0,27.0,22,0.00,,,-99.99,,2013-01-20 21:52:00,
2013-01-20 15:03:00,39.0,3.0,-100.00,WNW,282,17.0,21.0,22,0.00,,,-99.99,,2013-01-20 22:03:00,
2013-01-20 15:12:00,38.0,3.0,-100.00,West,272,17.0,21.0,22,0.00,,,-99.99,,2013-01-20 22:12:00,
2013-01-20 15:22:00,38.0,4.0,-100.00,West,278,9.0,13.0,23,0.00,,,-99.99,,2013-01-20 22:22:00,
2013-01-20 15:33:00,35.0,9.0,-100.00,SSW,208,10.0,12.0,34,0.00,,,-99.99,,2013-01-20 22:33:00,
2013-01-20 15:43:00,34.0,10.0,-100.00,SSW,210,13.0,17.0,36,0.00,,,-99.99,,2013-01-20 22:43:00,
2013-01-20 15:52:00,33.0,10.0,-100.00,SW,215,7.0,12.0,37,0.00,,,-99.99,,2013-01-20 22:52:00,
2013-01-20 16:03:00,33.0,9.0,-100.00,SSW,212,9.0,12.0,37,0.00,,,-99.99,,2013-01-20 23:03:00,
2013-01-20 16:12:00,32.0,10.0,-100.00,SSW,210,7.0,10.0,38,0.00,,,-99.99,,2013-01-20 23:12:00,
2013-01-20 16:23:00,32.0,10.0,-100.00,SW,216,9.0,11.0,38,0.00,,,-99.99,,2013-01-20 23:23:00,
2013-01-20 16:33:00,33.0,9.0,-100.00,SSW,213,9.0,11.0,37,0.00,,,-99.99,,2013-01-20 23:33:00,
2013-01-20 16:42:00,33.0,10.0,-100.00,SW,224,8.0,11.0,38,0.00,,,-99.99,,2013-01-20 23:42:00,
2013-01-20 16:52:00,32.0,10.0,-100.00,SW,226,6.0,9.0,39,0.00,,,-99.99,,2013-01-20 23:52:00,
2013-01-20 17:03:00,31.0,10.0,-100.00,SW,219,9.0,14.0,41,0.00,,,-99.99,,2013-01-21 00:03:00,
2013-01-20 17:13:00,31.0,10.0,-100.00,SW,232,8.0,12.0,41,0.00,,,-99.99,,2013-01-21 00:13:00,
2013-01-20 17:22:00,29.0,11.0,-100.00,WSW,244,9.0,12.0,45,0.00,,,-99.99,,2013-01-21 00:22:00,
2013-01-20 17:33:00,28.0,11.0,-100.00,WSW,244,9.0,11.0,47,0.00,,,-99.99,,2013-01-21 00:33:00,
2013-01-20 17:43:00,28.0,11.0,-100.00,SW,236,9.0,12.0,48,0.00,,,-99.99,,2013-01-21 00:43:00,
2013-01-20 17:53:00,27.0,11.0,-100.00,WSW,244,9.0,11.0,49,0.00,,,-99.99,,2013-01-21 00:53:00,
2013-01-20 18:03:00,27.0,11.0,-100.00,SW,232,7.0,10.0,50,0.00,,,-99.99,,2013-01-21 01:03:00,
2013-01-20 18:12:00,26.0,11.0,-100.00,WSW,253,4.0,6.0,51,0.00,,,-99.99,,2013-01-21 01:12:00,
2013-01-20 18:22:00,25.0,11.0,-100.00,SW,229,5.0,9.0,53,0.00,,,-99.99,,2013-01-21 01:22:00,
2013-01-20 18:33:00,25.0,11.0,-100.00,SW,220,3.0,6.0,55,0.00,,,-99.99,,2013-01-21 01:33:00,
2013-01-20 18:43:00,24.0,10.0,-100.00,North,350,1.0,2.0,55,0.00,,,-99.99,,2013-01-21 01:43:00,
2013-01-20 18:52:00,24.0,11.0,-100.00,SW,222,4.0,6.0,58,0.00,,,-99.99,,2013-01-21 01:52:00,
2013-01-20 19:03:00,23.0,11.0,-100.00,WSW,239,6.0,7.0,60,0.00,,,-99.99,,2013-01-21 02:03:00,
2013-01-20 19:12:00,23.0,11.0,-100.00,SW,229,6.0,7.0,60,0.00,,,-99.99,,2013-01-21 02:12:00,
2013-01-20 19:23:00,23.0,11.0,-100.00,WSW,248,7.0,10.0,61,0.00,,,-99.99,,2013-01-21 02:23:00,
2013-01-20 19:33:00,23.0,12.0,-100.00,WSW,246,8.0,11.0,62,0.00,,,-99.99,,2013-01-21 02:33:00,
2013-01-20 19:43:00,23.0,11.0,-100.00,WSW,257,8.0,11.0,61,0.00,,,-99.99,,2013-01-21 02:43:00,
2013-01-20 19:53:00,22.0,11.0,-100.00,West,278,8.0,11.0,62,0.00,,,-99.99,,2013-01-21 02:53:00,
2013-01-20 20:03:00,22.0,11.0,-100.00,West,265,8.0,10.0,62,0.00,,,-99.99,,2013-01-21 03:03:00,
2013-01-20 20:12:00,22.0,11.0,-100.00,WSW,258,9.0,11.0,62,0.00,,,-99.99,,2013-01-21 03:12:00,
2013-01-20 20:23:00,21.0,11.0,-100.00,West,275,7.0,10.0,65,0.00,,,-99.99,,2013-01-21 03:23:00,
2013-01-20 20:33:00,21.0,11.0,-100.00,West,270,7.0,9.0,64,0.00,,,-99.99,,2013-01-21 03:33:00,
2013-01-20 20:43:00,22.0,12.0,-100.00,West,270,9.0,11.0,64,0.00,,,-99.99,,2013-01-21 03:43:00,
2013-01-20 20:52:00,20.0,11.0,-100.00,West,275,7.0,9.0,67,0.00,,,-99.99,,2013-01-21 03:52:00,
2013-01-20 21:03:00,21.0,11.0,-100.00,West,271,7.0,10.0,67,0.00,,,-99.99,,2013-01-21 04:03:00,
2013-01-20 21:12:00,20.0,11.0,-100.00,West,278,7.0,9.0,67,0.00,,,-99.99,,2013-01-21 04:12:00,
2013-01-20 21:23:00,19.0,10.0,-100.00,West,280,7.0,9.0,69,0.00,,,-99.99,,2013-01-21 04:23:00,
2013-01-20 21:32:00,19.0,11.0,-100.00,West,275,9.0,12.0,70,0.00,,,-99.99,,2013-01-21 04:32:00,
2013-01-20 21:42:00,20.0,11.0,-100.00,West,274,10.0,11.0,65,0.00,,,-99.99,,2013-01-21 04:42:00,
2013-01-20 21:52:00,18.0,9.0,-100.00,West,275,9.0,10.0,68,0.00,,,-99.99,,2013-01-21 04:52:00,
2013-01-20 22:03:00,19.0,9.0,-100.00,WNW,292,10.0,12.0,63,0.00,,,-99.99,,2013-01-21 05:03:00,
2013-01-20 22:12:00,20.0,9.0,-100.00,WNW,291,11.0,12.0,60,0.00,,,-99.99,,2013-01-21 05:12:00,
2013-01-20 22:22:00,21.0,6.0,-100.00,NW,304,10.0,11.0,52,0.00,,,-99.99,,2013-01-21 05:22:00,
2013-01-20 22:33:00,23.0,5.0,-100.00,NW,306,12.0,13.0,45,0.00,,,-99.99,,2013-01-21 05:33:00,
2013-01-20 22:42:00,24.0,5.0,-100.00,NW,311,14.0,16.0,44,0.00,,,-99.99,,2013-01-21 05:42:00,
2013-01-20 22:52:00,24.0,5.0,-100.00,NW,315,14.0,17.0,44,0.00,,,-99.99,,2013-01-21 05:52:00,
2013-01-20 23:03:00,24.0,5.0,-100.00,NW,315,16.0,19.0,43,0.00,,,-99.99,,2013-01-21 06:03:00,
2013-01-20 23:12:00,25.0,5.0,-100.00,NW,313,17.0,20.0,42,0.00,,,-99.99,,2013-01-21 06:12:00,
2013-01-20 23:23:00,25.0,5.0,-100.00,NW,311,18.0,22.0,41,0.00,,,-99.99,,2013-01-21 06:23:00,
2013-01-20 23:33:00,26.0,5.0,-100.00,NW,313,20.0,24.0,41,0.00,,,-99.99,,2013-01-21 06:33:00,
2013-01-20 23:43:00,26.0,5.0,-100.00,NW,313,20.0,24.0,41,0.00,,,-99.99,,2013-01-21 06:43:00,
2013-01-20 23:52:00,26.0,5.0,-100.00,NW,312,22.0,26.0,42,0.00,,,-99.99,,2013-01-21 06:52:00,